sensor_id;sensor_type;location;lat;lon;timestamp;pressure;altitude;pressure_sealevel;temperature;humidity
63665;BME280;49820;33.966;73.390;2022-11-15T06:18:11;79235.50;;;10.18;100.00
63665;BME280;49820;33.966;73.390;2022-11-15T06:21:00;79210.06;;;11.75;95.56
63665;BME280;49820;33.966;73.390;2022-11-15T06:23:48;79225.31;;;12.74;78.74
63665;BME280;49820;33.966;73.390;2022-11-15T06:26:35;79216.78;;;13.77;77.57
63665;BME280;49820;33.966;73.390;2022-11-15T06:29:23;79215.22;;;13.59;67.75
63665;BME280;49820;33.966;73.390;2022-11-15T06:32:11;79221.66;;;14.44;61.10
63665;BME280;49820;33.966;73.390;2022-11-15T06:34:58;79215.69;;;14.65;63.16
63665;BME280;49820;33.966;73.390;2022-11-15T06:37:47;79206.44;;;15.26;58.30
63665;BME280;49820;33.966;73.390;2022-11-15T06:40:36;79204.75;;;15.79;56.18
63665;BME280;49820;33.966;73.390;2022-11-15T06:43:24;79205.75;;;15.69;60.03
63665;BME280;49820;33.966;73.390;2022-11-15T06:46:12;79213.38;;;15.19;58.13
63665;BME280;49820;33.966;73.390;2022-11-15T06:49:00;79204.66;;;16.01;59.12
63665;BME280;49820;33.966;73.390;2022-11-15T06:51:54;79189.94;;;16.57;57.17
63665;BME280;49820;33.966;73.390;2022-11-15T06:54:42;79196.84;;;17.43;54.73
63665;BME280;49820;33.966;73.390;2022-11-15T06:57:29;79195.94;;;17.68;52.64
63665;BME280;49820;33.966;73.390;2022-11-15T07:00:19;79188.72;;;17.27;53.64
63665;BME280;49820;33.966;73.390;2022-11-15T07:03:07;79188.09;;;17.95;52.96
63665;BME280;49820;33.966;73.390;2022-11-15T07:05:57;79194.81;;;17.79;52.28
63665;BME280;49820;33.966;73.390;2022-11-15T07:08:51;79177.38;;;17.05;52.46
63665;BME280;49820;33.966;73.390;2022-11-15T07:11:39;79183.09;;;18.02;50.76
63665;BME280;49820;33.966;73.390;2022-11-15T07:14:27;79177.41;;;18.41;48.75
63665;BME280;49820;33.966;73.390;2022-11-15T07:17:14;79196.22;;;17.43;50.29
63665;BME280;49820;33.966;73.390;2022-11-15T07:20:02;79176.50;;;18.47;48.42
63665;BME280;49820;33.966;73.390;2022-11-15T07:22:50;79164.44;;;18.92;50.17
63665;BME280;49820;33.966;73.390;2022-11-15T07:25:38;79174.28;;;18.83;46.69
63665;BME280;49820;33.966;73.390;2022-11-15T07:28:27;79173.81;;;18.30;46.67
63665;BME280;49820;33.966;73.390;2022-11-15T07:31:15;79173.81;;;18.30;46.67
63665;BME280;49820;33.966;73.390;2022-11-15T07:34:03;79162.66;;;18.86;45.75
63665;BME280;49820;33.966;73.390;2022-11-15T07:36:51;79164.44;;;18.44;45.53
63665;BME280;49820;33.966;73.390;2022-11-15T07:39:39;79168.47;;;19.08;46.96
63665;BME280;49820;33.966;73.390;2022-11-15T07:42:26;79165.34;;;18.86;45.89
63665;BME280;49820;33.966;73.390;2022-11-15T07:45:32;79162.72;;;19.30;44.80
63665;BME280;49820;33.966;73.390;2022-11-15T07:48:22;79175.28;;;19.67;48.06
63665;BME280;49820;33.966;73.390;2022-11-15T07:51:17;79176.78;;;19.94;42.35
63665;BME280;49820;33.966;73.390;2022-11-15T07:54:05;79165.34;;;18.55;43.77
63665;BME280;49820;33.966;73.390;2022-11-15T07:56:54;79160.25;;;17.30;49.09
63665;BME280;49820;33.966;73.390;2022-11-15T07:59:47;79158.75;;;17.16;50.35
63665;BME280;49820;33.966;73.390;2022-11-15T08:02:35;79163.56;;;16.78;52.15
63665;BME280;49820;33.966;73.390;2022-11-15T08:05:23;79146.25;;;17.25;49.95
63665;BME280;49820;33.966;73.390;2022-11-15T08:08:11;79152.38;;;17.76;50.94
63665;BME280;49820;33.966;73.390;2022-11-15T08:10:59;79154.97;;;19.37;46.03
63665;BME280;49820;33.966;73.390;2022-11-15T08:13:47;79140.34;;;20.18;43.89
63665;BME280;49820;33.966;73.390;2022-11-15T08:16:35;79122.59;;;20.48;41.86
63665;BME280;49820;33.966;73.390;2022-11-15T08:19:23;79135.72;;;19.72;42.52
63665;BME280;49820;33.966;73.390;2022-11-15T08:22:11;79135.38;;;18.90;42.64
63665;BME280;49820;33.966;73.390;2022-11-15T08:24:59;79126.41;;;17.49;47.92
63665;BME280;49820;33.966;73.390;2022-11-15T08:27:47;79130.09;;;16.15;48.82
63665;BME280;49820;33.966;73.390;2022-11-15T08:30:40;79137.81;;;15.67;50.90
63665;BME280;49820;33.966;73.390;2022-11-15T08:33:30;79137.56;;;14.92;55.37
63665;BME280;49820;33.966;73.390;2022-11-15T08:36:18;79135.91;;;14.34;54.30
63665;BME280;49820;33.966;73.390;2022-11-15T08:39:10;79134.06;;;14.29;59.13
63665;BME280;49820;33.966;73.390;2022-11-15T08:41:59;79139.28;;;14.58;60.45
63665;BME280;49820;33.966;73.390;2022-11-15T08:44:46;79126.03;;;13.56;65.87
63665;BME280;49820;33.966;73.390;2022-11-15T08:47:34;79124.25;;;13.22;65.11
63665;BME280;49820;33.966;73.390;2022-11-15T08:50:22;79124.06;;;12.20;68.41
63665;BME280;49820;33.966;73.390;2022-11-15T08:53:10;79119.56;;;11.82;71.18
63665;BME280;49820;33.966;73.390;2022-11-15T08:55:58;79115.66;;;11.77;76.88
63665;BME280;49820;33.966;73.390;2022-11-15T08:58:46;79119.97;;;11.29;61.84
63665;BME280;49820;33.966;73.390;2022-11-15T09:01:34;79121.78;;;11.05;65.96
63665;BME280;49820;33.966;73.390;2022-11-15T09:04:22;79123.16;;;10.69;73.16
63665;BME280;49820;33.966;73.390;2022-11-15T09:07:11;79127.78;;;9.91;79.61
63665;BME280;49820;33.966;73.390;2022-11-15T09:10:00;79105.84;;;9.86;84.91
63665;BME280;49820;33.966;73.390;2022-11-15T09:12:47;79113.72;;;9.94;85.25
63665;BME280;49820;33.966;73.390;2022-11-15T09:15:36;79115.22;;;10.26;79.88
63665;BME280;49820;33.966;73.390;2022-11-15T09:18:24;79119.28;;;9.80;91.12
63665;BME280;49820;33.966;73.390;2022-11-15T09:21:13;79094.53;;;9.84;88.21
63665;BME280;49820;33.966;73.390;2022-11-15T09:24:01;79088.28;;;10.00;91.29
63665;BME280;49820;33.966;73.390;2022-11-15T09:26:51;79106.78;;;10.10;94.98
63665;BME280;49820;33.966;73.390;2022-11-15T09:29:39;79098.75;;;10.12;100.00
63665;BME280;49820;33.966;73.390;2022-11-15T09:32:30;79086.28;;;9.98;100.00
63665;BME280;49820;33.966;73.390;2022-11-15T09:35:24;79066.88;;;10.04;96.09
63665;BME280;49820;33.966;73.390;2022-11-15T09:38:11;79081.28;;;10.21;100.00
63665;BME280;49820;33.966;73.390;2022-11-15T09:44:23;79088.78;;;9.69;100.00
63665;BME280;49820;33.966;73.390;2022-11-15T09:50:51;79092.91;;;9.15;96.41
63665;BME280;49820;33.966;73.390;2022-11-15T09:53:36;79094.56;;;8.92;100.00
63665;BME280;49820;33.966;73.390;2022-11-15T09:56:35;79074.47;;;8.99;100.00
63665;BME280;49820;33.966;73.390;2022-11-15T10:01:56;79091.81;;;9.45;100.00
63665;BME280;49820;33.966;73.390;2022-11-15T10:04:29;79070.34;;;9.08;100.00
63665;BME280;49820;33.966;73.390;2022-11-15T10:07:14;79087.53;;;9.17;100.00
63665;BME280;49820;33.966;73.390;2022-11-15T10:10:07;79065.41;;;9.27;100.00
63665;BME280;49820;33.966;73.390;2022-11-15T10:12:45;79076.44;;;9.47;100.00
63665;BME280;49820;33.966;73.390;2022-11-15T10:15:17;79076.72;;;9.27;97.78
63665;BME280;49820;33.966;73.390;2022-11-15T10:18:05;79079.72;;;9.50;96.72
63665;BME280;49820;33.966;73.390;2022-11-15T10:20:46;79061.06;;;9.50;95.74
63665;BME280;49820;33.966;73.390;2022-11-15T10:23:19;79046.50;;;10.60;84.10
63665;BME280;49820;33.966;73.390;2022-11-15T10:25:55;79063.94;;;10.20;84.52
63665;BME280;49820;33.966;73.390;2022-11-15T10:28:33;79054.34;;;9.53;84.44
63665;BME280;49820;33.966;73.390;2022-11-15T10:31:02;79058.81;;;9.24;85.42
63665;BME280;49820;33.966;73.390;2022-11-15T10:33:38;79037.63;;;8.66;88.82
63665;BME280;49820;33.966;73.390;2022-11-15T10:36:16;79059.78;;;8.51;93.78
63665;BME280;49820;33.966;73.390;2022-11-15T10:41:21;79061.44;;;8.21;98.65
63665;BME280;49820;33.966;73.390;2022-11-15T10:46:37;79030.69;;;7.75;100.00
63665;BME280;49820;33.966;73.390;2022-11-15T10:49:15;79049.28;;;7.77;100.00
63665;BME280;49820;33.966;73.390;2022-11-15T10:51:49;79039.34;;;7.72;100.00
63665;BME280;49820;33.966;73.390;2022-11-15T10:54:34;79038.19;;;7.54;100.00
63665;BME280;49820;33.966;73.390;2022-11-15T10:57:28;79037.56;;;7.54;98.42
63665;BME280;49820;33.966;73.390;2022-11-15T11:00:35;79015.66;;;7.47;98.12
63665;BME280;49820;33.966;73.390;2022-11-15T11:03:00;79029.78;;;7.32;100.00
63665;BME280;49820;33.966;73.390;2022-11-15T11:05:38;79032.03;;;7.03;100.00
63665;BME280;49820;33.966;73.390;2022-11-15T11:10:56;79016.25;;;6.82;97.72
63665;BME280;49820;33.966;73.390;2022-11-15T11:13:31;79032.03;;;7.03;94.17
63665;BME280;49820;33.966;73.390;2022-11-15T11:19:10;79028.97;;;6.66;100.00
63665;BME280;49820;33.966;73.390;2022-11-15T11:25:25;79032.41;;;6.50;100.00
63665;BME280;49820;33.966;73.390;2022-11-15T11:30:55;79019.94;;;6.28;100.00
63665;BME280;49820;33.966;73.390;2022-11-15T11:39:56;79011.59;;;5.73;98.05
63665;BME280;49820;33.966;73.390;2022-11-15T11:48:20;79026.28;;;5.42;88.99
63665;BME280;49820;33.966;73.390;2022-11-15T11:51:01;78992.56;;;5.24;91.94
63665;BME280;49820;33.966;73.390;2022-11-15T11:53:45;79008.50;;;5.18;92.34
63665;BME280;49820;33.966;73.390;2022-11-15T11:56:32;79013.13;;;5.15;88.68
63665;BME280;49820;33.966;73.390;2022-11-15T12:02:39;78998.44;;;5.51;77.60
63665;BME280;49820;33.966;73.390;2022-11-15T12:05:34;78995.81;;;5.38;81.85
63665;BME280;49820;33.966;73.390;2022-11-15T12:08:29;78998.50;;;5.28;85.95
63665;BME280;49820;33.966;73.390;2022-11-15T12:13:39;79004.50;;;5.13;82.86
63665;BME280;49820;33.966;73.390;2022-11-15T12:18:47;79013.13;;;5.03;85.49
63665;BME280;49820;33.966;73.390;2022-11-15T12:21:33;79003.88;;;5.04;84.07
63665;BME280;49820;33.966;73.390;2022-11-15T12:27:20;78999.91;;;5.09;81.64
63665;BME280;49820;33.966;73.390;2022-11-15T12:29:57;78971.47;;;4.91;81.09
63665;BME280;49820;33.966;73.390;2022-11-15T12:32:31;79001.19;;;5.26;74.77
63665;BME280;49820;33.966;73.390;2022-11-15T12:35:04;78997.22;;;5.19;78.62
63665;BME280;49820;33.966;73.390;2022-11-15T12:40:37;78989.34;;;4.89;81.64
63665;BME280;49820;33.966;73.390;2022-11-15T12:43:40;79014.47;;;5.04;79.56
63665;BME280;49820;33.966;73.390;2022-11-15T12:46:21;79013.75;;;5.24;74.11
63665;BME280;49820;33.966;73.390;2022-11-15T12:49:00;79025.66;;;5.31;75.11
63665;BME280;49820;33.966;73.390;2022-11-15T12:59:56;79016.91;;;5.73;73.49
63665;BME280;49820;33.966;73.390;2022-11-15T13:02:40;79021.56;;;5.60;75.62
63665;BME280;49820;33.966;73.390;2022-11-15T13:12:58;79013.59;;;5.70;71.15
63665;BME280;49820;33.966;73.390;2022-11-15T13:15:38;79029.53;;;5.62;72.35
63665;BME280;49820;33.966;73.390;2022-11-15T13:18:39;79025.56;;;5.57;72.68
63665;BME280;49820;33.966;73.390;2022-11-15T13:21:23;79028.88;;;5.56;74.03
63665;BME280;49820;33.966;73.390;2022-11-15T13:24:14;79027.63;;;5.43;74.06
63665;BME280;49820;33.966;73.390;2022-11-15T13:26:45;79025.56;;;5.55;71.08
63665;BME280;49820;33.966;73.390;2022-11-15T13:29:16;79048.69;;;5.69;70.74
63665;BME280;49820;33.966;73.390;2022-11-15T13:31:47;79022.25;;;5.55;68.57
63665;BME280;49820;33.966;73.390;2022-11-15T13:34:31;79048.00;;;5.76;68.83
63665;BME280;49820;33.966;73.390;2022-11-15T13:39:51;79007.09;;;5.43;69.08
63665;BME280;49820;33.966;73.390;2022-11-15T13:42:21;79046.06;;;5.73;67.96
63665;BME280;49820;33.966;73.390;2022-11-15T13:45:14;79031.50;;;5.66;66.47
63665;BME280;49820;33.966;73.390;2022-11-15T13:47:44;79043.41;;;5.71;67.70
63665;BME280;49820;33.966;73.390;2022-11-15T13:50:16;79044.78;;;5.58;72.36
63665;BME280;49820;33.966;73.390;2022-11-15T13:52:46;79030.91;;;5.45;67.97
63665;BME280;49820;33.966;73.390;2022-11-15T13:55:22;79051.41;;;5.53;69.68
63665;BME280;49820;33.966;73.390;2022-11-15T13:58:02;79046.09;;;5.53;71.69
63665;BME280;49820;33.966;73.390;2022-11-15T14:00:36;79048.78;;;5.51;68.47
63665;BME280;49820;33.966;73.390;2022-11-15T14:06:08;79041.47;;;5.55;70.13
63665;BME280;49820;33.966;73.390;2022-11-15T14:09:03;79050.78;;;5.48;69.68
63665;BME280;49820;33.966;73.390;2022-11-15T14:11:34;79034.25;;;5.42;66.15
63665;BME280;49820;33.966;73.390;2022-11-15T14:16:39;79044.16;;;5.51;68.13
63665;BME280;49820;33.966;73.390;2022-11-15T14:19:33;79044.81;;;5.48;70.43
63665;BME280;49820;33.966;73.390;2022-11-15T14:25:14;79042.09;;;5.66;68.06
63665;BME280;49820;33.966;73.390;2022-11-15T14:30:44;78970.84;;;4.73;76.18
63665;BME280;49820;33.966;73.390;2022-11-15T14:33:23;79042.22;;;5.21;75.68
63665;BME280;49820;33.966;73.390;2022-11-15T14:35:55;79036.97;;;5.09;79.76
63665;BME280;49820;33.966;73.390;2022-11-15T14:38:27;79041.63;;;4.98;80.22
63665;BME280;49820;33.966;73.390;2022-11-15T14:40:56;79046.94;;;4.88;80.92
63665;BME280;49820;33.966;73.390;2022-11-15T14:43:30;79045.59;;;5.02;75.82
63665;BME280;49820;33.966;73.390;2022-11-15T14:45:59;79044.91;;;5.09;74.94
63665;BME280;49820;33.966;73.390;2022-11-15T14:48:29;79055.50;;;4.95;80.32
63665;BME280;49820;33.966;73.390;2022-11-15T14:50:59;79041.63;;;4.88;76.82
63665;BME280;49820;33.966;73.390;2022-11-15T14:53:28;79058.16;;;5.07;73.12
63665;BME280;49820;33.966;73.390;2022-11-15T14:55:59;79043.59;;;5.06;68.73
63665;BME280;49820;33.966;73.390;2022-11-15T14:58:29;79026.41;;;4.99;66.98
63665;BME280;49820;33.966;73.390;2022-11-15T15:00:59;79036.31;;;5.11;67.73
63665;BME280;49820;33.966;73.390;2022-11-15T15:03:29;79028.34;;;5.15;67.97
63665;BME280;49820;33.966;73.390;2022-11-15T15:05:58;79054.09;;;5.51;68.51
63665;BME280;49820;33.966;73.390;2022-11-15T15:08:27;79058.00;;;5.60;68.72
63665;BME280;49820;33.966;73.390;2022-11-15T15:10:58;79032.88;;;5.47;69.50
63665;BME280;49820;33.966;73.390;2022-11-15T15:13:29;79052.72;;;5.62;69.78
63665;BME280;49820;33.966;73.390;2022-11-15T15:15:58;79050.69;;;5.70;68.83
63665;BME280;49820;33.966;73.390;2022-11-15T15:18:28;79039.47;;;5.62;68.93
63665;BME280;49820;33.966;73.390;2022-11-15T15:20:59;79038.16;;;5.59;70.56
63665;BME280;49820;33.966;73.390;2022-11-15T15:23:32;79036.78;;;5.74;68.63
63665;BME280;49820;33.966;73.390;2022-11-15T15:26:01;79030.16;;;5.75;68.93
63665;BME280;49820;33.966;73.390;2022-11-15T15:28:32;79038.09;;;5.73;70.39
63665;BME280;49820;33.966;73.390;2022-11-15T15:31:02;79019.63;;;5.51;69.89
63665;BME280;49820;33.966;73.390;2022-11-15T15:33:33;79049.38;;;5.69;70.71
63665;BME280;49820;33.966;73.390;2022-11-15T15:36:03;79052.72;;;5.64;73.57
63665;BME280;49820;33.966;73.390;2022-11-15T15:38:32;79010.44;;;5.21;77.08
63665;BME280;49820;33.966;73.390;2022-11-15T15:41:02;79023.72;;;5.17;76.60
63665;BME280;49820;33.966;73.390;2022-11-15T15:43:32;79034.94;;;5.20;84.20
63665;BME280;49820;33.966;73.390;2022-11-15T15:46:01;79027.03;;;5.06;84.23
63665;BME280;49820;33.966;73.390;2022-11-15T15:48:31;79021.78;;;4.87;81.52
63665;BME280;49820;33.966;73.390;2022-11-15T15:51:03;79017.81;;;4.86;84.81
63665;BME280;49820;33.966;73.390;2022-11-15T15:53:42;78999.34;;;4.62;81.32
63665;BME280;49820;33.966;73.390;2022-11-15T15:56:14;78979.50;;;4.41;83.93
63665;BME280;49820;33.966;73.390;2022-11-15T15:58:44;78994.06;;;4.42;81.88
63665;BME280;49820;33.966;73.390;2022-11-15T16:01:13;78981.50;;;4.22;80.71
63665;BME280;49820;33.966;73.390;2022-11-15T16:03:43;79003.31;;;4.25;83.90
63665;BME280;49820;33.966;73.390;2022-11-15T16:06:38;79013.22;;;4.22;85.58
63665;BME280;49820;33.966;73.390;2022-11-15T16:09:10;78992.09;;;4.10;80.94
63665;BME280;49820;33.966;73.390;2022-11-15T16:11:45;79009.94;;;4.26;77.87
63665;BME280;49820;33.966;73.390;2022-11-15T16:14:23;78996.06;;;4.13;79.15
63665;BME280;49820;33.966;73.390;2022-11-15T16:16:53;79002.66;;;4.22;83.31
63665;BME280;49820;33.966;73.390;2022-11-15T16:19:23;79002.00;;;4.09;83.64
63665;BME280;49820;33.966;73.390;2022-11-15T16:21:52;78997.34;;;3.90;87.54
63665;BME280;49820;33.966;73.390;2022-11-15T16:24:22;79009.25;;;3.89;86.78
63665;BME280;49820;33.966;73.390;2022-11-15T16:26:52;78994.03;;;3.85;89.53
63665;BME280;49820;33.966;73.390;2022-11-15T16:29:24;78976.88;;;3.72;90.29
63665;BME280;49820;33.966;73.390;2022-11-15T16:31:54;78996.72;;;3.89;87.28
63665;BME280;49820;33.966;73.390;2022-11-15T16:34:23;79003.31;;;3.98;86.48
63665;BME280;49820;33.966;73.390;2022-11-15T16:36:59;79002.66;;;4.08;83.93
63665;BME280;49820;33.966;73.390;2022-11-15T16:39:28;78980.84;;;4.03;80.69
63665;BME280;49820;33.966;73.390;2022-11-15T16:42:01;78999.34;;;4.42;79.06
63665;BME280;49820;33.966;73.390;2022-11-15T16:44:31;78939.84;;;4.33;75.05
63665;BME280;49820;33.966;73.390;2022-11-15T16:47:03;78985.41;;;4.86;67.75
63665;BME280;49820;33.966;73.390;2022-11-15T16:49:38;78970.19;;;4.80;70.77
63665;BME280;49820;33.966;73.390;2022-11-15T16:52:14;78967.56;;;4.68;71.67
63665;BME280;49820;33.966;73.390;2022-11-15T16:54:50;78968.22;;;4.71;69.54
63665;BME280;49820;33.966;73.390;2022-11-15T16:57:26;78978.78;;;4.83;69.00
63665;BME280;49820;33.966;73.390;2022-11-15T16:59:56;78986.69;;;4.89;72.89
63665;BME280;49820;33.966;73.390;2022-11-15T17:02:26;78974.84;;;4.70;74.40
63665;BME280;49820;33.966;73.390;2022-11-15T17:04:55;78949.06;;;4.58;69.38
63665;BME280;49820;33.966;73.390;2022-11-15T17:07:26;78960.28;;;4.67;69.48
63665;BME280;49820;33.966;73.390;2022-11-15T17:09:55;78962.25;;;4.76;70.15
63665;BME280;49820;33.966;73.390;2022-11-15T17:12:25;78976.72;;;5.14;67.96
63665;BME280;49820;33.966;73.390;2022-11-15T17:14:54;78975.34;;;5.23;65.26
63665;BME280;49820;33.966;73.390;2022-11-15T17:17:24;78973.34;;;5.31;66.72
63665;BME280;49820;33.966;73.390;2022-11-15T17:19:54;78960.09;;;5.27;64.83
63665;BME280;49820;33.966;73.390;2022-11-15T17:22:24;78932.97;;;5.25;64.66
63665;BME280;49820;33.966;73.390;2022-11-15T17:24:53;78981.78;;;5.72;64.81
63665;BME280;49820;33.966;73.390;2022-11-15T17:27:24;78972.41;;;5.86;62.97
63665;BME280;49820;33.966;73.390;2022-11-15T17:29:54;78976.38;;;5.95;64.18
63665;BME280;49820;33.966;73.390;2022-11-15T17:32:23;78979.69;;;5.97;63.67
63665;BME280;49820;33.966;73.390;2022-11-15T17:34:55;78963.81;;;5.85;65.09
63665;BME280;49820;33.966;73.390;2022-11-15T17:37:24;78981.06;;;5.90;65.93
63665;BME280;49820;33.966;73.390;2022-11-15T17:39:54;78977.72;;;5.90;65.75
63665;BME280;49820;33.966;73.390;2022-11-15T17:42:25;78931.53;;;5.48;66.60
63665;BME280;49820;33.966;73.390;2022-11-15T17:44:54;78968.44;;;5.87;66.81
63665;BME280;49820;33.966;73.390;2022-11-15T17:47:23;78974.41;;;5.85;67.40
63665;BME280;49820;33.966;73.390;2022-11-15T17:49:53;78972.44;;;5.82;67.30
63665;BME280;49820;33.966;73.390;2022-11-15T17:52:22;78960.53;;;5.81;67.07
63665;BME280;49820;33.966;73.390;2022-11-15T17:54:53;78972.44;;;5.92;67.24
63665;BME280;49820;33.966;73.390;2022-11-15T17:57:23;78932.13;;;5.63;67.74
63665;BME280;49820;33.966;73.390;2022-11-15T17:59:53;78965.16;;;5.88;67.40
63665;BME280;49820;33.966;73.390;2022-11-15T18:02:24;78963.16;;;5.91;67.39
63665;BME280;49820;33.966;73.390;2022-11-15T18:04:55;78945.28;;;5.81;66.41
63665;BME280;49820;33.966;73.390;2022-11-15T18:07:29;78945.91;;;5.92;65.84
63665;BME280;49820;33.966;73.390;2022-11-15T18:09:59;78945.84;;;6.02;65.25
63665;BME280;49820;33.966;73.390;2022-11-15T18:12:29;78938.53;;;6.06;64.32
63665;BME280;49820;33.966;73.390;2022-11-15T18:15:12;78937.16;;;6.11;64.00
63665;BME280;49820;33.966;73.390;2022-11-15T18:17:41;78944.41;;;6.17;64.10
63665;BME280;49820;33.966;73.390;2022-11-15T18:20:11;78930.59;;;6.00;64.76
63665;BME280;49820;33.966;73.390;2022-11-15T18:22:40;78930.63;;;5.98;64.28
63665;BME280;49820;33.966;73.390;2022-11-15T18:25:10;78951.09;;;6.10;63.83
63665;BME280;49820;33.966;73.390;2022-11-15T18:27:43;78935.22;;;6.06;63.99
63665;BME280;49820;33.966;73.390;2022-11-15T18:30:12;78949.06;;;6.15;63.86
63665;BME280;49820;33.966;73.390;2022-11-15T18:32:43;78943.78;;;6.08;64.60
63665;BME280;49820;33.966;73.390;2022-11-15T18:35:12;78912.09;;;5.86;64.45
63665;BME280;49820;33.966;73.390;2022-11-15T18:37:42;78937.16;;;6.11;65.29
63665;BME280;49820;33.966;73.390;2022-11-15T18:40:11;78928.59;;;6.01;65.25
63665;BME280;49820;33.966;73.390;2022-11-15T18:42:41;78902.25;;;5.72;65.70
63665;BME280;49820;33.966;73.390;2022-11-15T18:45:10;78923.41;;;5.83;65.73
63665;BME280;49820;33.966;73.390;2022-11-15T18:47:40;78928.66;;;5.93;63.89
63665;BME280;49820;33.966;73.390;2022-11-15T18:50:09;78920.06;;;5.84;64.03
63665;BME280;49820;33.966;73.390;2022-11-15T18:52:38;78924.75;;;5.80;67.63
63665;BME280;49820;33.966;73.390;2022-11-15T18:55:08;78916.22;;;5.67;68.50
63665;BME280;49820;33.966;73.390;2022-11-15T18:57:38;78872.03;;;5.29;66.62
63665;BME280;49820;33.966;73.390;2022-11-15T19:00:11;78895.09;;;5.51;66.93
63665;BME280;49820;33.966;73.390;2022-11-15T19:02:41;78904.38;;;5.50;66.07
63665;BME280;49820;33.966;73.390;2022-11-15T19:05:10;78909.03;;;5.47;65.94
63665;BME280;49820;33.966;73.390;2022-11-15T19:07:47;78905.06;;;5.46;64.75
63665;BME280;49820;33.966;73.390;2022-11-15T19:10:19;78882.59;;;5.37;63.95
63665;BME280;49820;33.966;73.390;2022-11-15T19:12:48;78902.31;;;5.64;63.29
63665;BME280;49820;33.966;73.390;2022-11-15T19:15:18;78868.66;;;5.41;63.63
63665;BME280;49820;33.966;73.390;2022-11-15T19:17:48;78898.31;;;5.67;66.98
63665;BME280;49820;33.966;73.390;2022-11-15T19:20:19;78877.91;;;5.46;67.05
63665;BME280;49820;33.966;73.390;2022-11-15T19:22:48;78888.41;;;5.60;65.43
63665;BME280;49820;33.966;73.390;2022-11-15T19:25:17;78883.09;;;5.60;64.50
63665;BME280;49820;33.966;73.390;2022-11-15T19:27:46;78887.78;;;5.53;72.45
63665;BME280;49820;33.966;73.390;2022-11-15T19:30:16;78852.16;;;5.28;68.56
63665;BME280;49820;33.966;73.390;2022-11-15T19:32:45;78846.91;;;5.22;69.13
63665;BME280;49820;33.966;73.390;2022-11-15T19:35:15;78853.53;;;5.25;70.22
63665;BME280;49820;33.966;73.390;2022-11-15T19:37:44;78880.56;;;5.44;69.36
63665;BME280;49820;33.966;73.390;2022-11-15T19:40:14;78865.44;;;5.20;74.81
63665;BME280;49820;33.966;73.390;2022-11-15T19:42:43;78865.53;;;5.10;75.35
63665;BME280;49820;33.966;73.390;2022-11-15T19:45:12;78862.25;;;5.01;76.56
63665;BME280;49820;33.966;73.390;2022-11-15T19:47:41;78866.19;;;5.06;81.23
63665;BME280;49820;33.966;73.390;2022-11-15T19:50:11;78867.50;;;5.09;76.12
63665;BME280;49820;33.966;73.390;2022-11-15T19:52:40;78855.59;;;5.06;74.64
63665;BME280;49820;33.966;73.390;2022-11-15T19:55:09;78861.53;;;5.13;77.84
63665;BME280;49820;33.966;73.390;2022-11-15T19:57:39;78855.59;;;5.08;76.64
63665;BME280;49820;33.966;73.390;2022-11-15T20:00:08;78854.91;;;5.12;79.68
63665;BME280;49820;33.966;73.390;2022-11-15T20:02:38;78850.31;;;5.08;79.16
63665;BME280;49820;33.966;73.390;2022-11-15T20:05:07;78839.72;;;5.04;73.68
63665;BME280;49820;33.966;73.390;2022-11-15T20:07:47;78844.97;;;5.12;78.10
63665;BME280;49820;33.966;73.390;2022-11-15T20:10:17;78844.34;;;5.04;83.64
63665;BME280;49820;33.966;73.390;2022-11-15T20:12:47;78823.94;;;4.86;82.91
63665;BME280;49820;33.966;73.390;2022-11-15T20:15:17;78831.84;;;4.88;83.39
63665;BME280;49820;33.966;73.390;2022-11-15T20:17:46;78844.41;;;4.95;81.58
63665;BME280;49820;33.966;73.390;2022-11-15T20:20:15;78819.31;;;4.82;74.89
63665;BME280;49820;33.966;73.390;2022-11-15T20:22:45;78823.22;;;4.95;71.26
63665;BME280;49820;33.966;73.390;2022-11-15T20:25:15;78808.06;;;4.86;71.67
63665;BME280;49820;33.966;73.390;2022-11-15T20:27:44;78854.19;;;5.21;69.94
63665;BME280;49820;33.966;73.390;2022-11-15T20:30:13;78825.13;;;5.11;67.99
63665;BME280;49820;33.966;73.390;2022-11-15T20:32:43;78818.44;;;5.22;65.03
63665;BME280;49820;33.966;73.390;2022-11-15T20:35:12;78841.47;;;5.44;65.57
63665;BME280;49820;33.966;73.390;2022-11-15T20:37:42;78829.53;;;5.47;64.73
63665;BME280;49820;33.966;73.390;2022-11-15T20:40:11;78836.72;;;5.63;65.53
63665;BME280;49820;33.966;73.390;2022-11-15T20:42:41;78846.63;;;5.68;66.11
63665;BME280;49820;33.966;73.390;2022-11-15T20:45:10;78828.13;;;5.62;66.37
63665;BME280;49820;33.966;73.390;2022-11-15T20:47:40;78814.25;;;5.58;67.05
63665;BME280;49820;33.966;73.390;2022-11-15T20:50:09;78824.19;;;5.57;68.39
63665;BME280;49820;33.966;73.390;2022-11-15T20:52:59;78823.56;;;5.51;69.67
63665;BME280;49820;33.966;73.390;2022-11-15T20:55:28;78817.00;;;5.40;69.98
63665;BME280;49820;33.966;73.390;2022-11-15T20:57:57;78833.50;;;5.48;69.67
63665;BME280;49820;33.966;73.390;2022-11-15T21:00:26;78838.13;;;5.52;69.65
63665;BME280;49820;33.966;73.390;2022-11-15T21:02:55;78833.47;;;5.52;70.22
63665;BME280;49820;33.966;73.390;2022-11-15T21:05:25;78814.41;;;5.33;71.20
63665;BME280;49820;33.966;73.390;2022-11-15T21:07:54;78816.97;;;5.48;69.09
63665;BME280;49820;33.966;73.390;2022-11-15T21:10:24;78810.34;;;5.47;68.16
63665;BME280;49820;33.966;73.390;2022-11-15T21:13:11;78811.00;;;5.45;68.22
63665;BME280;49820;33.966;73.390;2022-11-15T21:15:41;78814.31;;;5.46;67.64
63665;BME280;49820;33.966;73.390;2022-11-15T21:18:10;78826.16;;;5.57;67.32
63665;BME280;49820;33.966;73.390;2022-11-15T21:20:40;78822.81;;;5.64;66.06
63665;BME280;49820;33.966;73.390;2022-11-15T21:23:11;78814.25;;;5.54;65.98
63665;BME280;49820;33.966;73.390;2022-11-15T21:25:41;78793.94;;;5.22;67.94
63665;BME280;49820;33.966;73.390;2022-11-15T21:28:16;78814.47;;;5.25;68.45
63665;BME280;49820;33.966;73.390;2022-11-15T21:30:53;78801.94;;;5.18;68.01